createdAt,value
2023-04-15T00:14:34.623Z,47.43
2023-04-15T00:29:36.580Z,47.46
2023-04-15T00:44:38.253Z,46.90
2023-04-15T00:59:39.974Z,46.83
2023-04-15T01:14:41.702Z,46.35
2023-04-15T01:29:43.418Z,46.58
2023-04-15T01:44:45.121Z,46.61
2023-04-15T01:59:46.814Z,46.13
2023-04-15T02:14:48.485Z,46.11
2023-04-15T02:29:50.155Z,46.00
2023-04-15T02:44:52.051Z,45.67
2023-04-15T02:59:53.744Z,46.17
2023-04-15T03:14:55.365Z,45.90
2023-04-15T03:29:56.992Z,45.64
2023-04-15T03:44:58.648Z,45.75
2023-04-15T04:00:00.310Z,45.19
2023-04-15T04:15:01.973Z,45.68
2023-04-15T04:30:04.237Z,45.50
2023-04-15T04:45:06.371Z,45.52
2023-04-15T05:00:08.628Z,45.64
2023-04-15T05:15:10.799Z,45.75
2023-04-15T05:30:13.722Z,45.45
2023-04-15T05:45:15.696Z,46.29
2023-04-15T06:00:17.578Z,46.12
2023-04-15T06:15:19.448Z,46.49
2023-04-15T06:30:22.940Z,45.96
2023-04-15T06:45:26.108Z,45.80
2023-04-15T07:00:27.847Z,45.78
2023-04-15T07:15:29.514Z,46.14
2023-04-15T07:30:31.213Z,45.90
2023-04-15T07:45:32.920Z,46.29
2023-04-15T08:00:34.627Z,45.82
2023-04-15T08:15:36.348Z,45.76
2023-04-15T08:30:38.038Z,45.88
2023-04-15T08:45:39.984Z,45.94
2023-04-15T09:00:42.169Z,46.12
2023-04-15T09:15:43.921Z,46.03
2023-04-15T09:30:45.565Z,45.75
2023-04-15T09:45:52.664Z,47.94
2023-04-15T10:00:56.232Z,47.20
2023-04-15T10:16:00.713Z,47.36
2023-04-15T10:31:02.819Z,46.87
2023-04-15T10:46:06.609Z,47.62
2023-04-15T11:01:08.318Z,47.48
2023-04-15T11:16:10.071Z,46.98
2023-04-15T11:31:14.248Z,46.75
2023-04-15T11:46:16.139Z,47.77
2023-04-15T12:01:18.285Z,47.93
2023-04-15T12:16:20.266Z,47.54
2023-04-15T12:31:22.084Z,47.34
2023-04-15T12:46:24.184Z,47.43
2023-04-15T13:01:25.959Z,47.78
2023-04-15T13:16:28.263Z,47.54
2023-04-15T13:31:30.040Z,47.43
2023-04-15T13:46:31.922Z,47.51
2023-04-15T14:01:34.680Z,47.28
2023-04-15T14:16:36.477Z,47.34
2023-04-15T14:31:38.649Z,47.57
2023-04-15T14:46:42.943Z,47.39
2023-04-15T15:01:44.760Z,47.53
2023-04-15T15:16:46.496Z,47.65
2023-04-15T15:31:48.712Z,47.90
2023-04-15T15:46:50.864Z,47.68
2023-04-15T16:01:53.017Z,47.38
2023-04-15T16:16:54.981Z,47.49
2023-04-15T16:31:56.937Z,47.72
2023-04-15T16:46:58.621Z,47.70
2023-04-15T17:02:03.290Z,47.34
2023-04-15T17:17:05.134Z,47.70
2023-04-15T17:32:06.814Z,47.19
2023-04-15T17:47:08.583Z,47.56
2023-04-15T18:02:10.454Z,47.58
2023-04-15T18:17:12.305Z,47.72
2023-04-15T18:32:14.047Z,47.84
2023-04-15T18:47:16.253Z,48.05
2023-04-15T19:02:18.029Z,47.73
2023-04-15T19:17:19.790Z,47.68
2023-04-15T19:32:21.616Z,48.07
2023-04-15T19:47:23.579Z,48.11
2023-04-15T20:02:25.558Z,48.51
2023-04-15T20:17:27.655Z,48.19
2023-04-15T20:32:29.547Z,48.14
2023-04-15T20:47:31.705Z,48.27
2023-04-15T21:02:33.559Z,48.47
2023-04-15T21:17:35.388Z,47.89
2023-04-15T21:32:37.235Z,47.98
2023-04-15T21:48:06.169Z,48.64
2023-04-15T22:03:00.839Z,48.56
2023-04-15T22:18:02.626Z,48.71
2023-04-15T22:33:04.556Z,48.37
2023-04-15T22:48:06.321Z,48.37
2023-04-15T23:03:08.375Z,48.36
2023-04-15T23:18:10.244Z,48.41
2023-04-15T23:33:12.027Z,48.25
2023-04-15T23:48:13.739Z,48.06
